createdAt,value
2022-10-06T00:00:04.495Z,94720.65
2022-10-06T00:01:28.164Z,94720.48
2022-10-06T00:02:35.913Z,94724.59
2022-10-06T00:03:40.112Z,94724.50
2022-10-06T00:04:43.305Z,94727.69
2022-10-06T00:05:46.440Z,94729.61
2022-10-06T00:06:49.716Z,94729.98
2022-10-06T00:07:53.193Z,94728.23
2022-10-06T00:08:56.358Z,94728.98
2022-10-06T00:10:03.959Z,94729.86
2022-10-06T00:11:09.492Z,94733.88
2022-10-06T00:12:12.811Z,94734.99
2022-10-06T00:13:16.128Z,94734.38
2022-10-06T00:14:19.337Z,94735.52
2022-10-06T00:15:28.550Z,94735.25
2022-10-06T00:16:31.809Z,94735.33
2022-10-06T00:17:35.239Z,94737.05
2022-10-06T00:18:41.268Z,94736.58
2022-10-06T00:19:44.402Z,94740.57
2022-10-06T00:20:58.390Z,94732.46
2022-10-06T00:22:01.510Z,94730.94
2022-10-06T00:23:04.958Z,94735.96
2022-10-06T00:24:08.116Z,94737.02
2022-10-06T00:25:14.258Z,94737.58
2022-10-06T00:26:17.673Z,94733.92
2022-10-06T00:27:21.147Z,94734.63
2022-10-06T00:28:25.999Z,94739.12
2022-10-06T00:29:29.893Z,94736.30
2022-10-06T00:30:33.072Z,94735.36
2022-10-06T00:31:36.309Z,94734.52
2022-10-06T00:32:40.293Z,94737.77
2022-10-06T00:33:43.660Z,94741.55
2022-10-06T00:34:46.905Z,94736.48
2022-10-06T00:35:58.053Z,94742.10
2022-10-06T00:37:02.183Z,94744.06
2022-10-06T00:38:05.607Z,94742.85
2022-10-06T00:39:08.848Z,94743.70
2022-10-06T00:40:12.481Z,94743.16
2022-10-06T00:41:18.131Z,94745.65
2022-10-06T00:42:27.454Z,94747.12
2022-10-06T00:43:42.758Z,94747.04
2022-10-06T00:44:49.763Z,94747.41
2022-10-06T00:45:53.293Z,94748.96
2022-10-06T00:46:56.634Z,94750.92
2022-10-06T00:48:11.730Z,94748.73
2022-10-06T00:49:37.388Z,94747.86
2022-10-06T00:50:41.536Z,94748.96
2022-10-06T00:51:57.054Z,94748.50
2022-10-06T00:53:00.523Z,94745.30
2022-10-06T00:54:04.183Z,94747.58
2022-10-06T00:55:10.733Z,94752.09
2022-10-06T00:56:14.504Z,94747.30
2022-10-06T00:57:19.948Z,94743.88
2022-10-06T00:58:23.566Z,94741.54
2022-10-06T00:59:26.945Z,94746.10
2022-10-06T01:00:30.456Z,94743.06
2022-10-06T01:01:36.577Z,94741.79
2022-10-06T01:02:45.228Z,94745.65
2022-10-06T01:04:00.537Z,94750.00
2022-10-06T01:05:06.056Z,94748.11
2022-10-06T01:06:09.687Z,94749.75
2022-10-06T01:07:12.916Z,94752.80
2022-10-06T01:08:16.623Z,94750.19
2022-10-06T01:09:21.294Z,94755.16
2022-10-06T01:10:24.664Z,94754.80
2022-10-06T01:11:28.266Z,94755.29
2022-10-06T01:12:33.653Z,94751.67
2022-10-06T01:13:37.084Z,94754.86
2022-10-06T01:14:41.090Z,94758.75
2022-10-06T01:15:53.776Z,94755.76
2022-10-06T01:17:03.128Z,94754.38
2022-10-06T01:18:14.823Z,94753.38
2022-10-06T01:19:47.573Z,94750.23
2022-10-06T01:20:59.570Z,94748.92
2022-10-06T01:22:08.564Z,94754.71
2022-10-06T01:23:12.450Z,94754.55
2022-10-06T01:24:18.936Z,94754.71
2022-10-06T01:25:23.221Z,94754.41
2022-10-06T01:26:28.613Z,94753.98
2022-10-06T01:27:33.836Z,94754.66
2022-10-06T01:28:39.470Z,94756.30
2022-10-06T01:29:43.173Z,94753.84
2022-10-06T01:30:52.919Z,94755.98
2022-10-06T01:31:57.663Z,94751.17
2022-10-06T01:33:00.974Z,94751.38
2022-10-06T01:34:04.595Z,94752.17
2022-10-06T01:35:09.139Z,94753.42
2022-10-06T01:36:12.431Z,94755.38
2022-10-06T01:37:15.817Z,94753.92
2022-10-06T01:38:20.458Z,94755.05
2022-10-06T01:39:26.033Z,94752.09
2022-10-06T01:40:29.568Z,94754.76
2022-10-06T01:41:35.614Z,94754.73
2022-10-06T01:42:41.057Z,94754.02
2022-10-06T01:43:44.300Z,94754.16
2022-10-06T01:44:47.488Z,94752.86
2022-10-06T01:45:55.573Z,94750.34
2022-10-06T01:46:58.814Z,94758.30
2022-10-06T01:48:03.588Z,94751.05
2022-10-06T01:49:06.910Z,94751.95
2022-10-06T01:50:10.858Z,94754.34
2022-10-06T01:51:18.848Z,94754.33
2022-10-06T01:52:22.284Z,94753.75
2022-10-06T01:53:25.568Z,94753.47
2022-10-06T01:54:28.945Z,94752.20
2022-10-06T01:55:32.252Z,94746.50
2022-10-06T01:56:36.171Z,94751.15
2022-10-06T01:57:41.692Z,94753.30
2022-10-06T01:58:45.518Z,94753.41
2022-10-06T01:59:52.706Z,94756.80
2022-10-06T02:00:57.812Z,94754.48
2022-10-06T02:02:01.690Z,94753.14
2022-10-06T02:03:05.415Z,94755.30
2022-10-06T02:04:08.676Z,94752.52
2022-10-06T02:05:12.845Z,94750.97
2022-10-06T02:06:20.987Z,94752.94
2022-10-06T02:07:24.359Z,94752.49
2022-10-06T02:08:28.216Z,94751.13
2022-10-06T02:09:33.573Z,94737.41
2022-10-06T02:10:40.734Z,94752.65
2022-10-06T02:11:51.309Z,94754.35
2022-10-06T02:12:54.864Z,94751.65
2022-10-06T02:13:59.433Z,94751.48
2022-10-06T02:15:02.910Z,94749.02
2022-10-06T02:16:08.292Z,94751.98
2022-10-06T02:17:11.559Z,94755.67
2022-10-06T02:18:14.832Z,94747.88
2022-10-06T02:19:18.584Z,94751.62
2022-10-06T02:20:22.213Z,94754.27
2022-10-06T02:21:26.248Z,94750.66
2022-10-06T02:22:29.445Z,94753.22
2022-10-06T02:23:36.017Z,94755.54
2022-10-06T02:24:39.203Z,94755.46
2022-10-06T02:25:43.689Z,94752.30
2022-10-06T02:26:47.024Z,94755.62
2022-10-06T02:27:50.162Z,94755.69
2022-10-06T02:28:53.792Z,94756.77
2022-10-06T02:29:59.297Z,94757.16
2022-10-06T02:31:08.809Z,94757.73
2022-10-06T02:32:12.483Z,94757.88
2022-10-06T02:33:16.033Z,94760.33
2022-10-06T02:34:19.342Z,94762.38
2022-10-06T02:35:23.146Z,94762.88
2022-10-06T02:36:26.680Z,94762.67
2022-10-06T02:37:31.157Z,94764.46
2022-10-06T02:38:36.389Z,94765.59
2022-10-06T02:39:42.424Z,94767.08
2022-10-06T02:40:45.898Z,94771.77
2022-10-06T02:41:49.201Z,94770.23
2022-10-06T02:42:52.393Z,94748.26
2022-10-06T02:43:56.487Z,94768.33
2022-10-06T02:44:59.990Z,94770.39
2022-10-06T02:46:07.145Z,94767.52
2022-10-06T02:47:14.778Z,94776.25
2022-10-06T02:48:18.053Z,94774.30
2022-10-06T02:49:21.395Z,94778.76
2022-10-06T02:50:25.003Z,94776.80
2022-10-06T02:51:28.598Z,94779.33
2022-10-06T02:52:37.501Z,94776.73
2022-10-06T02:53:43.218Z,94779.64
2022-10-06T02:54:47.451Z,94780.48
2022-10-06T02:55:50.848Z,94785.66
2022-10-06T02:56:54.235Z,94785.46
2022-10-06T02:57:57.395Z,94788.04
2022-10-06T02:59:00.529Z,94793.90
2022-10-06T03:00:07.806Z,94799.09
2022-10-06T03:01:13.791Z,94799.09
2022-10-06T03:02:17.231Z,94799.78
2022-10-06T03:03:20.700Z,94804.17
2022-10-06T03:04:23.929Z,94802.30
2022-10-06T03:05:29.421Z,94803.07
2022-10-06T03:06:32.574Z,94804.94
2022-10-06T03:07:57.144Z,94803.92
2022-10-06T03:09:03.675Z,94805.11
2022-10-06T03:10:07.817Z,94805.79
2022-10-06T03:11:11.945Z,94808.19
2022-10-06T03:12:15.338Z,94808.20
2022-10-06T03:13:20.284Z,94809.30
2022-10-06T03:14:23.674Z,94812.76
2022-10-06T03:15:26.953Z,94812.02
2022-10-06T03:16:38.858Z,94816.84
2022-10-06T03:17:46.326Z,94815.53
2022-10-06T03:18:51.357Z,94813.48
2022-10-06T03:19:58.562Z,94813.48
2022-10-06T03:21:01.880Z,94813.66
2022-10-06T03:22:05.929Z,94813.94
2022-10-06T03:23:17.496Z,94817.95
2022-10-06T03:24:20.751Z,94818.90
2022-10-06T03:25:26.441Z,94817.10
2022-10-06T03:26:42.873Z,94816.91
2022-10-06T03:27:50.330Z,94819.20
2022-10-06T03:28:55.666Z,94817.40
2022-10-06T03:29:59.206Z,94822.80
2022-10-06T03:31:04.975Z,94824.67
2022-10-06T03:32:08.493Z,94817.16
2022-10-06T03:33:12.311Z,94826.70
2022-10-06T03:34:15.800Z,94825.11
2022-10-06T03:35:19.968Z,94828.40
2022-10-06T03:36:25.987Z,94826.10
2022-10-06T03:37:29.212Z,94828.99
2022-10-06T03:38:38.757Z,94830.80
2022-10-06T03:39:41.973Z,94830.95
2022-10-06T03:40:45.142Z,94832.14
2022-10-06T03:41:48.482Z,94829.73
2022-10-06T03:42:51.668Z,94832.83
2022-10-06T03:43:56.729Z,94834.94
2022-10-06T03:44:59.987Z,94835.17
2022-10-06T03:46:07.116Z,94837.89
2022-10-06T03:47:14.554Z,94838.59
2022-10-06T03:48:20.197Z,94835.71
2022-10-06T03:49:24.058Z,94840.79
2022-10-06T03:50:29.779Z,94843.30
2022-10-06T03:51:39.707Z,94845.69
2022-10-06T03:52:45.437Z,94844.33
2022-10-06T03:53:53.336Z,94845.80
2022-10-06T03:54:56.659Z,94847.98
2022-10-06T03:56:12.562Z,94841.70
2022-10-06T03:57:15.721Z,94856.36
2022-10-06T03:58:19.456Z,94848.08
2022-10-06T03:59:23.617Z,94853.98
2022-10-06T04:00:27.120Z,94853.56
2022-10-06T04:01:33.552Z,94856.33
2022-10-06T04:02:38.527Z,94861.45
2022-10-06T04:03:42.068Z,94862.10
2022-10-06T04:04:45.217Z,94860.98
2022-10-06T04:05:59.357Z,94861.95
2022-10-06T04:07:03.057Z,94863.08
2022-10-06T04:08:06.449Z,94868.70
2022-10-06T04:09:15.288Z,94868.18
2022-10-06T04:10:19.517Z,94870.21
2022-10-06T04:11:27.758Z,94870.45
2022-10-06T04:12:31.090Z,94871.45
2022-10-06T04:13:34.957Z,94876.80
2022-10-06T04:14:38.193Z,94874.73
2022-10-06T04:15:43.423Z,94874.77
2022-10-06T04:16:50.720Z,94878.61
2022-10-06T04:18:14.556Z,94878.91
2022-10-06T04:19:18.511Z,94880.38
2022-10-06T04:20:25.037Z,94874.92
2022-10-06T04:21:30.991Z,94880.29
2022-10-06T04:22:34.703Z,94881.43
2022-10-06T04:23:39.254Z,94879.29
2022-10-06T04:24:42.456Z,94878.02
2022-10-06T04:25:46.311Z,94880.69
2022-10-06T04:26:50.217Z,94879.65
2022-10-06T04:27:54.843Z,94882.08
2022-10-06T04:28:58.136Z,94883.89
2022-10-06T04:30:04.260Z,94884.26
2022-10-06T04:31:14.937Z,94882.98
2022-10-06T04:32:18.319Z,94884.45
2022-10-06T04:33:22.527Z,94877.06
2022-10-06T04:34:25.940Z,94889.66
2022-10-06T04:35:29.520Z,94889.05
2022-10-06T04:36:35.744Z,94891.31
2022-10-06T04:37:39.172Z,94891.56
2022-10-06T04:38:42.999Z,94892.61
2022-10-06T04:39:46.960Z,94894.29
2022-10-06T04:40:50.330Z,94896.67
2022-10-06T04:41:53.619Z,94896.06
2022-10-06T04:43:04.020Z,94891.33
2022-10-06T04:44:07.960Z,94892.60
2022-10-06T04:45:11.803Z,94897.73
2022-10-06T04:46:41.553Z,94898.41
2022-10-06T04:47:41.677Z,94897.65
2022-10-06T04:48:45.623Z,94902.00
2022-10-06T04:49:49.017Z,94903.04
2022-10-06T04:50:59.218Z,94904.41
2022-10-06T04:52:02.722Z,94906.43
2022-10-06T04:53:08.192Z,94906.11
2022-10-06T04:54:11.609Z,94907.71
2022-10-06T04:55:14.912Z,94907.90
2022-10-06T04:56:24.246Z,94907.86
2022-10-06T04:57:28.122Z,94907.17
2022-10-06T04:58:43.128Z,94910.11
2022-10-06T05:00:09.032Z,94913.11
2022-10-06T05:01:22.137Z,94914.64
2022-10-06T05:02:25.695Z,94916.27
2022-10-06T05:03:32.080Z,94917.63
2022-10-06T05:04:35.946Z,94917.71
2022-10-06T05:05:39.330Z,94920.41
2022-10-06T05:06:42.695Z,94918.19
2022-10-06T05:07:47.408Z,94919.00
2022-10-06T05:08:56.623Z,94915.48
2022-10-06T05:10:00.084Z,94916.45
2022-10-06T05:11:07.228Z,94915.81
2022-10-06T05:12:12.617Z,94922.02
2022-10-06T05:13:16.532Z,94922.02
2022-10-06T05:14:19.822Z,94923.89
2022-10-06T05:15:24.976Z,94922.27
2022-10-06T05:16:30.836Z,94924.77
2022-10-06T05:17:34.523Z,94923.01
2022-10-06T05:18:38.033Z,94925.21
2022-10-06T05:19:46.428Z,94929.04
2022-10-06T05:21:06.602Z,94931.15
2022-10-06T05:22:10.269Z,94930.98
2022-10-06T05:23:13.605Z,94931.76
2022-10-06T05:24:17.110Z,94929.89
2022-10-06T05:25:20.758Z,94931.10
2022-10-06T05:26:28.186Z,94930.19
2022-10-06T05:27:31.658Z,94931.11
2022-10-06T05:28:37.087Z,94932.80
2022-10-06T05:31:11.164Z,94931.12
2022-10-06T05:32:15.027Z,94937.27
2022-10-06T05:33:18.770Z,94942.73
2022-10-06T05:34:22.214Z,94944.39
2022-10-06T05:35:25.613Z,94943.79
2022-10-06T05:36:31.451Z,94942.14
2022-10-06T05:37:34.635Z,94945.48
2022-10-06T05:38:38.308Z,94945.02
2022-10-06T05:39:41.603Z,94949.67
2022-10-06T05:40:44.835Z,94953.61
2022-10-06T05:41:48.215Z,94954.50
2022-10-06T05:42:55.665Z,94956.19
2022-10-06T05:43:59.304Z,94950.71
2022-10-06T05:45:09.831Z,94954.87
2022-10-06T05:46:20.630Z,94956.11
2022-10-06T05:47:23.820Z,94955.25
2022-10-06T05:48:28.578Z,94963.61
2022-10-06T05:49:32.003Z,94964.11
2022-10-06T05:50:38.299Z,94963.98
2022-10-06T05:51:41.699Z,94962.54
2022-10-06T05:52:55.827Z,94961.61
2022-10-06T05:54:00.205Z,94962.68
2022-10-06T05:55:05.904Z,94963.92
2022-10-06T05:56:17.578Z,94964.70
2022-10-06T05:57:20.896Z,94966.10
2022-10-06T05:58:24.118Z,94970.48
2022-10-06T05:59:27.513Z,94965.88
2022-10-06T06:00:32.229Z,94969.23
2022-10-06T06:01:38.298Z,94972.73
2022-10-06T06:02:41.745Z,94974.11
2022-10-06T06:03:52.946Z,94976.81
2022-10-06T06:04:56.155Z,94977.41
2022-10-06T06:05:59.278Z,94978.98
2022-10-06T06:07:02.595Z,94978.06
2022-10-06T06:08:05.909Z,94982.73
2022-10-06T06:09:11.787Z,94983.56
2022-10-06T06:10:15.148Z,94985.25
2022-10-06T06:11:18.860Z,94985.66
2022-10-06T06:12:22.108Z,94990.40
2022-10-06T06:13:28.846Z,94984.19
2022-10-06T06:15:00.623Z,94991.98
2022-10-06T06:16:14.603Z,94987.02
2022-10-06T06:17:18.075Z,94992.59
2022-10-06T06:18:21.244Z,94991.67
2022-10-06T06:19:28.971Z,94992.46
2022-10-06T06:20:32.663Z,94994.23
2022-10-06T06:21:36.258Z,94996.48
2022-10-06T06:22:39.549Z,94998.62
2022-10-06T06:23:46.639Z,94996.41
2022-10-06T06:24:51.213Z,94998.19
2022-10-06T06:26:02.255Z,94995.97
2022-10-06T06:27:07.354Z,94996.51
2022-10-06T06:28:10.670Z,94995.94
2022-10-06T06:29:14.001Z,94995.30
2022-10-06T06:30:21.430Z,95000.08
2022-10-06T06:31:28.144Z,95001.60
2022-10-06T06:32:32.116Z,95002.42
2022-10-06T06:33:40.067Z,95004.54
2022-10-06T06:34:43.363Z,95003.24
2022-10-06T06:35:46.644Z,95008.00
2022-10-06T06:36:53.892Z,95011.65
2022-10-06T06:37:59.582Z,95003.96
2022-10-06T06:39:06.203Z,95008.65
2022-10-06T06:40:10.269Z,95010.92
2022-10-06T06:41:17.329Z,95016.86
2022-10-06T06:42:20.732Z,95016.52
2022-10-06T06:43:24.633Z,95019.72
2022-10-06T06:44:47.067Z,95019.46
2022-10-06T06:46:07.617Z,95018.02
2022-10-06T06:47:26.761Z,95019.67
2022-10-06T06:48:30.563Z,95017.14
2022-10-06T06:49:33.987Z,95019.70
2022-10-06T06:50:40.221Z,95017.52
2022-10-06T06:51:45.247Z,95018.74
2022-10-06T06:52:54.200Z,95018.31
2022-10-06T06:54:00.998Z,95020.52
2022-10-06T06:55:04.684Z,95023.83
2022-10-06T06:56:09.767Z,95022.81
2022-10-06T06:57:13.171Z,95022.41
2022-10-06T06:58:16.841Z,95025.36
2022-10-06T06:59:20.607Z,95027.96
2022-10-06T07:00:26.362Z,95030.96
2022-10-06T07:01:29.645Z,95032.36
2022-10-06T07:02:32.865Z,95033.92
2022-10-06T07:03:56.509Z,95034.21
2022-10-06T07:05:00.258Z,95034.23
2022-10-06T07:06:13.259Z,95044.13
2022-10-06T07:07:16.589Z,95041.96
2022-10-06T07:08:20.807Z,95038.94
2022-10-06T07:09:28.545Z,95038.67
2022-10-06T07:10:52.034Z,95040.80
2022-10-06T07:11:55.358Z,95037.90
2022-10-06T07:12:59.464Z,95041.69
2022-10-06T07:14:08.919Z,95042.92
2022-10-06T07:15:30.693Z,95040.56
2022-10-06T07:16:53.202Z,95045.21
2022-10-06T07:18:15.982Z,95039.84
2022-10-06T07:19:39.818Z,95042.09
2022-10-06T07:21:02.345Z,95046.30
2022-10-06T07:22:27.303Z,95042.80
2022-10-06T07:23:51.419Z,95039.09
2022-10-06T07:25:08.413Z,95037.29
2022-10-06T07:26:13.890Z,95035.41
2022-10-06T07:27:17.108Z,95035.33
2022-10-06T07:28:23.258Z,95037.99
2022-10-06T07:29:28.053Z,95040.77
2022-10-06T07:30:31.410Z,95043.45
2022-10-06T07:31:38.019Z,95045.66
2022-10-06T07:32:41.425Z,95041.91
2022-10-06T07:33:45.010Z,95042.89
2022-10-06T07:34:49.718Z,95037.45
2022-10-06T07:35:52.982Z,95033.52
2022-10-06T07:37:00.452Z,95035.95
2022-10-06T07:38:08.928Z,95037.45
2022-10-06T07:39:29.046Z,95034.73
2022-10-06T07:40:33.373Z,95036.08
2022-10-06T07:41:36.498Z,95039.73
2022-10-06T07:42:50.196Z,95041.40
2022-10-06T07:43:56.522Z,95040.61
2022-10-06T07:45:20.514Z,95045.91
2022-10-06T07:46:24.827Z,95044.24
2022-10-06T07:48:01.905Z,95046.77
2022-10-06T07:49:06.752Z,95049.04
2022-10-06T07:50:13.115Z,95047.55
2022-10-06T07:51:19.274Z,95052.81
2022-10-06T07:52:23.119Z,95053.33
2022-10-06T07:53:29.514Z,95057.50
2022-10-06T07:54:39.053Z,95058.20
2022-10-06T07:55:54.199Z,95058.80
2022-10-06T07:56:59.472Z,95062.31
2022-10-06T07:58:02.725Z,95057.79
2022-10-06T07:59:05.950Z,95060.63
2022-10-06T08:00:09.923Z,95062.05
2022-10-06T08:01:18.715Z,95063.13
2022-10-06T08:02:24.530Z,95063.31
2022-10-06T08:03:27.913Z,95062.50
2022-10-06T08:04:31.351Z,95062.73
2022-10-06T08:05:34.679Z,95060.52
2022-10-06T08:06:38.734Z,95063.23
2022-10-06T08:07:42.111Z,95066.10
2022-10-06T08:08:52.489Z,95068.25
2022-10-06T08:09:56.282Z,95067.21
2022-10-06T08:11:01.877Z,95067.30
2022-10-06T08:12:25.409Z,95065.92
2022-10-06T08:13:31.049Z,95070.92
2022-10-06T08:14:35.571Z,95068.06
2022-10-06T08:15:39.113Z,95067.52
2022-10-06T08:16:42.358Z,95075.00
2022-10-06T08:17:48.080Z,95075.81
2022-10-06T08:18:54.383Z,95073.73
2022-10-06T08:19:57.590Z,95074.00
2022-10-06T08:21:17.547Z,95072.33
2022-10-06T08:22:22.518Z,95073.02
2022-10-06T08:23:26.373Z,95073.46
2022-10-06T08:24:37.826Z,95077.76
2022-10-06T08:25:54.042Z,95080.89
2022-10-06T08:26:57.338Z,95079.38
2022-10-06T08:28:00.630Z,95074.46
2022-10-06T08:29:04.650Z,95077.11
2022-10-06T08:30:08.553Z,95082.52
2022-10-06T08:31:11.838Z,95085.98
2022-10-06T08:32:15.078Z,95086.27
2022-10-06T08:33:21.273Z,95089.45
2022-10-06T08:34:25.402Z,95087.42
2022-10-06T08:35:30.788Z,95088.14
2022-10-06T08:36:34.086Z,95089.20
2022-10-06T08:37:37.299Z,95095.05
2022-10-06T08:38:41.512Z,95091.52
2022-10-06T08:39:45.104Z,95093.31
2022-10-06T08:40:48.303Z,95092.20
2022-10-06T08:41:53.369Z,95091.63
2022-10-06T08:42:59.220Z,95091.13
2022-10-06T08:44:05.520Z,95094.13
2022-10-06T08:45:25.059Z,95091.58
2022-10-06T08:46:39.046Z,95094.28
2022-10-06T08:47:51.256Z,95094.84
2022-10-06T08:48:54.658Z,95096.85
2022-10-06T08:49:58.348Z,95095.26
2022-10-06T08:51:11.770Z,95097.23
2022-10-06T08:52:39.344Z,95097.41
2022-10-06T08:54:13.186Z,95094.83
2022-10-06T08:55:31.898Z,95093.91
2022-10-06T08:57:10.538Z,95091.36
2022-10-06T08:58:40.953Z,95092.75
2022-10-06T08:59:48.726Z,95092.23
2022-10-06T09:00:56.997Z,95092.09
2022-10-06T09:02:01.055Z,95094.10
2022-10-06T09:03:05.378Z,95099.23
2022-10-06T09:04:12.941Z,95097.91
2022-10-06T09:05:23.425Z,95096.79
2022-10-06T09:06:41.396Z,95094.92
2022-10-06T09:07:52.544Z,95104.38
2022-10-06T09:09:08.180Z,95098.91
2022-10-06T09:10:52.697Z,95101.48
2022-10-06T09:11:58.754Z,95096.85
2022-10-06T09:13:28.952Z,95096.27
2022-10-06T09:14:57.412Z,95094.61
2022-10-06T09:16:07.651Z,95090.38
2022-10-06T09:17:16.194Z,95104.00
2022-10-06T09:19:09.335Z,95106.23
2022-10-06T09:20:29.437Z,95098.90
2022-10-06T09:21:42.456Z,95104.80
2022-10-06T09:22:48.073Z,95105.69
2022-10-06T09:23:57.134Z,95103.14
2022-10-06T09:25:20.433Z,95104.38
2022-10-06T09:26:29.512Z,95104.58
2022-10-06T09:27:34.332Z,95102.86
2022-10-06T09:28:37.760Z,95110.84
2022-10-06T09:29:41.022Z,95108.72
2022-10-06T09:30:50.108Z,95104.92
2022-10-06T09:31:55.391Z,95105.49
2022-10-06T09:33:00.780Z,95104.05
2022-10-06T09:34:12.838Z,95100.92
2022-10-06T09:35:19.438Z,95104.60
2022-10-06T09:36:24.296Z,95104.06
2022-10-06T09:37:28.758Z,95107.96
2022-10-06T09:38:47.998Z,95103.97
2022-10-06T09:39:52.913Z,95108.30
2022-10-06T09:40:56.943Z,95109.84
2022-10-06T09:42:26.123Z,95112.47
2022-10-06T09:43:32.804Z,95107.66
2022-10-06T09:44:52.525Z,95107.80
2022-10-06T09:46:17.864Z,95109.05
2022-10-06T09:47:33.243Z,95108.73
2022-10-06T09:48:36.929Z,95109.18
2022-10-06T09:49:41.719Z,95109.19
2022-10-06T09:50:45.097Z,95105.98
2022-10-06T09:52:09.729Z,95107.98
2022-10-06T09:53:16.440Z,95102.33
2022-10-06T09:54:19.639Z,95115.79
2022-10-06T09:55:23.470Z,95110.30
2022-10-06T09:56:27.658Z,95113.55
2022-10-06T09:57:32.181Z,95113.75
2022-10-06T09:58:39.308Z,95114.56
2022-10-06T09:59:47.264Z,95116.39
2022-10-06T10:00:56.158Z,95110.64
2022-10-06T10:02:00.857Z,95118.66
2022-10-06T10:03:09.717Z,95116.91
2022-10-06T10:04:25.347Z,95109.96
2022-10-06T10:05:32.591Z,95108.75
2022-10-06T10:06:36.373Z,95108.16
2022-10-06T10:07:39.638Z,95112.63
2022-10-06T10:08:42.784Z,95106.70
2022-10-06T10:09:45.909Z,95107.71
2022-10-06T10:10:51.157Z,95110.02
2022-10-06T10:12:30.312Z,95107.76
2022-10-06T10:13:56.034Z,95097.05
2022-10-06T10:23:55.619Z,95114.92
2022-10-06T10:48:30.145Z,95123.11
2022-10-06T10:49:35.361Z,95111.14
2022-10-06T10:50:49.550Z,95111.55
2022-10-06T10:51:58.179Z,95122.39
2022-10-06T10:54:49.960Z,95116.46
2022-10-06T10:55:52.898Z,95110.84
2022-10-06T10:56:54.833Z,95117.24
2022-10-06T10:58:00.973Z,95114.73
2022-10-06T10:59:13.234Z,95119.70
2022-10-06T11:00:21.498Z,95121.19
2022-10-06T11:01:33.594Z,95114.21
2022-10-06T11:02:37.874Z,95119.77
2022-10-06T11:03:39.876Z,95117.19
2022-10-06T11:04:49.418Z,95121.07
2022-10-06T11:06:03.297Z,95119.73
2022-10-06T11:07:31.467Z,95126.12
2022-10-06T11:08:49.199Z,95124.59
2022-10-06T11:10:17.053Z,95127.27
2022-10-06T11:11:40.141Z,95124.59
2022-10-06T11:12:54.002Z,95122.82
2022-10-06T11:13:59.378Z,95121.48
2022-10-06T11:15:26.022Z,95118.36
2022-10-06T11:16:45.211Z,95123.15
2022-10-06T11:17:50.023Z,95117.86
2022-10-06T11:19:27.512Z,95125.06
2022-10-06T11:20:47.627Z,95116.86
2022-10-06T11:22:05.520Z,95114.11
2022-10-06T11:23:28.598Z,95114.73
2022-10-06T11:25:01.669Z,95111.05
2022-10-06T11:26:48.809Z,95117.05
2022-10-06T11:28:20.869Z,95109.24
2022-10-06T11:29:33.461Z,95111.55
2022-10-06T11:30:50.742Z,95112.56
2022-10-06T11:32:01.638Z,95113.47
2022-10-06T11:33:37.550Z,95103.55
2022-10-06T11:34:41.041Z,95116.34
2022-10-06T11:35:48.239Z,95117.68
2022-10-06T11:37:01.903Z,95119.39
2022-10-06T11:38:06.933Z,95110.63
2022-10-06T11:39:45.488Z,95115.57
2022-10-06T11:40:56.038Z,95114.31
2022-10-06T11:42:20.149Z,95111.06
2022-10-06T11:43:37.338Z,95110.24
2022-10-06T11:44:44.934Z,95113.92
2022-10-06T11:46:25.343Z,95112.95
2022-10-06T11:47:43.839Z,95109.20
2022-10-06T11:48:46.215Z,95114.20
2022-10-06T11:49:58.042Z,95113.05
2022-10-06T11:51:25.610Z,95110.09
2022-10-06T11:52:27.818Z,95110.83
2022-10-06T11:53:33.872Z,95110.10
2022-10-06T11:54:39.822Z,95115.27
2022-10-06T11:55:44.028Z,95108.45
2022-10-06T11:56:46.143Z,95109.89
2022-10-06T11:58:37.295Z,95109.96
2022-10-06T11:59:34.054Z,95110.45
2022-10-06T12:00:35.879Z,95113.94
2022-10-06T12:01:38.608Z,95111.05
2022-10-06T12:02:42.535Z,95110.02
2022-10-06T12:03:47.174Z,95109.67
2022-10-06T12:05:22.935Z,95106.30
2022-10-06T12:06:43.266Z,95108.73
2022-10-06T12:07:54.684Z,95106.45
2022-10-06T12:08:56.574Z,95109.16
2022-10-06T12:10:29.391Z,95105.27
2022-10-06T12:11:42.511Z,95103.38
2022-10-06T12:13:05.383Z,95107.67
2022-10-06T12:17:58.383Z,95104.90
2022-10-06T12:19:08.409Z,95106.27
2022-10-06T12:20:29.456Z,95100.20
2022-10-06T12:21:35.333Z,95100.20
2022-10-06T12:23:10.027Z,95101.70
2022-10-06T12:24:30.308Z,95106.39
2022-10-06T12:25:38.260Z,95103.32
2022-10-06T12:26:45.888Z,95103.14
2022-10-06T12:28:06.759Z,95105.02
2022-10-06T12:29:24.273Z,95105.46
2022-10-06T12:30:58.821Z,95100.12
2022-10-06T12:32:16.221Z,95100.54
2022-10-06T12:33:19.968Z,95101.40
2022-10-06T12:34:41.716Z,95099.55
2022-10-06T12:35:44.492Z,95101.06
2022-10-06T12:36:46.382Z,95099.41
2022-10-06T12:37:54.450Z,95097.97
2022-10-06T12:39:24.203Z,95096.54
2022-10-06T12:40:39.763Z,95099.24
2022-10-06T12:42:18.761Z,95095.36
2022-10-06T12:43:27.498Z,95095.30
2022-10-06T12:44:45.167Z,95092.83
2022-10-06T12:46:03.403Z,95095.56
2022-10-06T12:47:46.972Z,95097.20
2022-10-06T12:49:13.724Z,95100.84
2022-10-06T12:50:22.238Z,95094.92
2022-10-06T12:51:31.007Z,95090.36
2022-10-06T12:53:11.559Z,95094.66
2022-10-06T12:54:50.284Z,95087.68
2022-10-06T12:56:01.391Z,95085.09
2022-10-06T12:57:16.910Z,95087.42
2022-10-06T12:58:33.560Z,95079.00
2022-10-06T12:59:37.971Z,95082.45
2022-10-06T13:00:43.094Z,95081.21
2022-10-06T13:01:45.262Z,95078.55
2022-10-06T13:02:47.217Z,95075.42
2022-10-06T13:03:50.687Z,95077.73
2022-10-06T13:04:55.642Z,95080.17
2022-10-06T13:06:04.199Z,95081.95
2022-10-06T13:07:13.277Z,95077.55
2022-10-06T13:08:26.753Z,95081.02
2022-10-06T13:09:28.506Z,95082.66
2022-10-06T13:10:31.943Z,95083.27
2022-10-06T13:11:33.981Z,95086.83
2022-10-06T13:12:39.457Z,95085.41
2022-10-06T13:13:55.521Z,95086.31
2022-10-06T13:15:12.967Z,95085.13
2022-10-06T13:16:16.751Z,95085.88
2022-10-06T13:17:19.640Z,95080.51
2022-10-06T13:18:22.744Z,95083.37
2022-10-06T13:19:27.719Z,95080.13
2022-10-06T13:20:47.838Z,95080.52
2022-10-06T13:21:49.758Z,95076.55
2022-10-06T13:23:21.912Z,95080.95
2022-10-06T13:24:26.477Z,95079.80
2022-10-06T13:25:34.454Z,95082.10
2022-10-06T13:26:36.747Z,95082.91
2022-10-06T13:27:39.569Z,95073.48
2022-10-06T13:28:44.265Z,95079.67
2022-10-06T13:29:46.109Z,95078.98
2022-10-06T13:32:04.729Z,95073.25
2022-10-06T13:33:07.263Z,95068.02
2022-10-06T13:34:15.487Z,95083.21
2022-10-06T13:35:19.521Z,95084.91
2022-10-06T13:36:23.065Z,95079.43
2022-10-06T13:37:26.271Z,95072.23
2022-10-06T13:38:34.422Z,95078.81
2022-10-06T13:39:39.759Z,95080.29
2022-10-06T13:40:45.891Z,95083.63
2022-10-06T13:42:01.175Z,95079.15
2022-10-06T13:43:14.408Z,95079.81
2022-10-06T13:44:29.114Z,95083.23
2022-10-06T13:45:31.440Z,95081.73
2022-10-06T13:46:40.193Z,95078.99
2022-10-06T13:47:45.297Z,95080.82
2022-10-06T13:48:53.936Z,95079.98
2022-10-06T13:50:01.507Z,95082.05
2022-10-06T13:51:04.528Z,95080.36
2022-10-06T13:52:16.101Z,95077.98
2022-10-06T13:53:36.591Z,95078.27
2022-10-06T13:54:44.931Z,95077.83
2022-10-06T13:55:50.289Z,95075.90
2022-10-06T13:56:52.798Z,95079.22
2022-10-06T13:58:03.437Z,95079.33
2022-10-06T13:59:40.233Z,95079.02
2022-10-06T14:00:48.936Z,95077.95
2022-10-06T14:01:51.189Z,95078.80
2022-10-06T14:03:09.117Z,95077.09
2022-10-06T14:04:18.599Z,95077.55